createdAt,value
2023-01-01T00:14:27.576Z,2063.12598
2023-01-01T00:29:29.492Z,2042.68343
2023-01-01T00:44:31.435Z,1848.27636
2023-01-01T00:59:33.349Z,2042.68343
2023-01-01T01:14:35.280Z,2133.75847
2023-01-01T01:29:37.262Z,2284.74049
2023-01-01T01:44:39.471Z,2410.07245
2023-01-01T01:59:41.577Z,2392.85765
2023-01-01T02:14:43.542Z,2412.24174
2023-01-01T02:29:45.483Z,2403.58795
2023-01-01T02:44:47.403Z,2350.8777
2023-01-01T02:59:49.323Z,2369.58495
2023-01-01T03:14:51.358Z,2298.45677
2023-01-01T03:29:53.318Z,2213.04757
2023-01-01T03:44:55.268Z,2194.9227
2023-01-01T03:59:57.378Z,2098.66926
2023-01-01T04:14:59.354Z,2010.50313
2023-01-01T04:30:01.292Z,1944.8481
2023-01-01T04:45:03.271Z,2092.11604
2023-01-01T05:00:05.168Z,2156.07452
2023-01-01T05:15:07.200Z,2252.10135
2023-01-01T05:30:09.094Z,2350.8777
2023-01-01T05:45:11.013Z,2420.95805
2023-01-01T06:00:12.968Z,2528.3024
2023-01-01T06:15:14.921Z,2581.88876
2023-01-01T06:30:16.847Z,2653.46587
2023-01-01T06:45:18.788Z,2715.29941
2023-01-01T07:00:20.745Z,2768.59557
2023-01-01T07:15:22.719Z,2729.12476
2023-01-01T07:30:24.759Z,2777.2026
2023-01-01T07:45:26.694Z,2712.55113
2023-01-01T08:00:28.678Z,2701.61342
2023-01-01T08:15:30.679Z,2737.48775
2023-01-01T08:30:32.580Z,2715.29941
2023-01-01T08:45:34.562Z,2745.90216
2023-01-01T09:00:36.488Z,2731.90674
2023-01-01T09:15:38.513Z,2740.28682
2023-01-01T09:30:40.489Z,2751.54056
2023-01-01T09:45:42.530Z,2768.59557
2023-01-01T10:00:44.578Z,2748.71847
2023-01-01T10:15:46.652Z,2731.90674
2023-01-01T10:30:48.677Z,2596.89974
2023-01-01T10:45:50.619Z,1732.38576
2023-01-01T11:00:52.644Z,1717.94921
2023-01-01T11:15:54.596Z,2152.61095
2023-01-01T11:30:56.603Z,2224.0669
2023-01-01T11:45:58.626Z,2225.91413
2023-01-01T12:01:00.639Z,2286.68993
2023-01-01T12:16:02.688Z,2326.3894
2023-01-01T12:31:04.732Z,2390.72308
2023-01-01T12:46:06.811Z,2377.99519
2023-01-01T13:01:08.848Z,2434.15128
2023-01-01T13:16:10.815Z,2490.70683
2023-01-01T13:31:12.821Z,2518.79751
2023-01-01T13:46:15.271Z,2591.87673
2023-01-01T14:01:17.368Z,2635.20209
2023-01-01T14:16:19.348Z,2579.40379
2023-01-01T14:31:21.348Z,2574.44816
2023-01-01T14:46:23.438Z,2579.40379
2023-01-01T15:01:25.559Z,2632.61349
2023-01-01T15:16:27.615Z,2698.89277
2023-01-01T15:31:29.669Z,2748.71847
2023-01-01T15:46:32.572Z,2812.17261
2023-01-01T16:01:35.048Z,2857.14339
2023-01-01T16:16:37.124Z,2881.72096
2023-01-01T16:31:39.133Z,2935.37841
2023-01-01T16:46:41.316Z,2932.16683
2023-01-01T17:01:43.393Z,2720.81271
2023-01-01T17:16:45.653Z,2658.73068
2023-01-01T17:31:47.595Z,2607.00441
2023-01-01T17:46:49.638Z,2664.01642
2023-01-01T18:01:51.689Z,2682.6832
2023-01-01T18:16:53.730Z,2701.61342
2023-01-01T18:31:55.685Z,2757.20217
2023-01-01T18:46:57.718Z,2743.09162
2023-01-01T19:01:59.774Z,2748.71847
2023-01-01T19:17:01.988Z,2794.57821
2023-01-01T19:32:03.917Z,2827.00475
2023-01-01T19:47:05.870Z,2791.66719
2023-01-01T20:02:44.205Z,2723.57776
2023-01-01T20:17:47.682Z,2661.37093
2023-01-01T20:32:49.627Z,2624.87809
2023-01-01T20:47:51.549Z,2627.4515
2023-01-01T21:02:53.848Z,2648.22186
2023-01-01T21:17:55.840Z,2604.47088
2023-01-01T21:32:57.887Z,2754.36846
2023-01-01T21:48:00.043Z,2835.97936
2023-01-01T22:03:02.074Z,2894.169
2023-01-01T22:18:04.095Z,2718.05326
2023-01-01T22:33:06.327Z,2945.05548
2023-01-01T22:48:08.261Z,2765.7384
2023-01-01T23:03:10.375Z,2650.84127
2023-01-01T23:18:12.509Z,2612.08629
2023-01-01T23:33:14.477Z,2569.51154
2023-01-01T23:48:16.494Z,2604.47088
